Araxos, Greece

4:37 PM EEST on July 07, 2015 (GMT +0300)
Araxos Air Base | | Change Station
CLOSE
Current Station
Airport
Location: Araxos,
Elevation: 49 ft
Nearby Weather Stations

Elev 49 ft 38.15 °N, 21.43 °E | Updated 17 minutes ago

Partly Cloudy
Partly Cloudy
93 °F
Feels Like 92 °F
N
8
Wind Variable Wind from NNE

Today
High -- | Low -- °F
--% Chance of Precip.
Yesterday
High -- | Low -- °F
Precip. -- in
6:17 AM 9:00 PM
Waning Gibbous, 65% visible
Pressure 29.92 in
Visibility 6.2 miles
Clouds Few 3500 ft
Heat Index 92 °F
Dew Point 57 °F
Humidity 30%
Rainfall 0.00 in
Snow Depth Not available.
UV 7 out of 12
Pollen Not available.
Air Quality Not available.
Flu Activity Not available.
METAR LGRX 071320Z 03007KT 9999 FEW035 34/14 Q1013

More Conditions Fewer Conditions

Pressure 29.92 in
Visibility 6.2 miles
Clouds Few 3500 ft
Heat Index 92 °F
Dew Point 57 °F
Humidity 30%
Rainfall 0.00 in
Snow Depth Not available.
UV 7 out of 12
Pollen Not available.
Air Quality Not available.
Flu Activity Not available.
METAR LGRX 071320Z 03007KT 9999 FEW035 34/14 Q1013

More Conditions Fewer Conditions

10-Day Weather Forecast

×

Almanac

Astronomy

Jul. 07, 2015 Rise Set
Actual Time
Civil Twilight
Nautical Twilight
Astronomical Twilight
Moon
Length of Visible Light
Length of Day
Tomorrow will be .
, % of the Moon is Illuminated

Today's Extremes

Country Highs Country Lows

Community

WunderPhotos

Upload Photos

1,835,795 photos uploaded!

WunderBlogs® & News

Nearby

Air Quality

  Air Quality AQ Index Pollutant
Not available.

Snow Depth

Station Depth Elevation

Earthquake Activity

City Distance Mag. Time & Date
Minimum magnitude displayed is 2.5.

Coastal Water Temperatures

Place Temperature

Stations

Nearby Weather Stations

Station Location Temp. Windchill Dew Point Humidity Wind Precip. Elev Updated Type